sensor_id;sensor_type;location;lat;lon;timestamp;P1;durP1;ratioP1;P2;durP2;ratioP2
67902;SDS011;54708;43.612;1.568;2024-01-07T00:02:13;7.65;;;3.65;;
67902;SDS011;54708;43.612;1.568;2024-01-07T00:04:39;5.28;;;3.95;;
67902;SDS011;54708;43.612;1.568;2024-01-07T00:07:05;5.60;;;3.60;;
67902;SDS011;54708;43.612;1.568;2024-01-07T00:09:30;5.13;;;3.72;;
67902;SDS011;54708;43.612;1.568;2024-01-07T00:11:56;5.25;;;3.90;;
67902;SDS011;54708;43.612;1.568;2024-01-07T00:14:21;6.47;;;4.22;;
67902;SDS011;54708;43.612;1.568;2024-01-07T00:16:46;7.53;;;4.05;;
67902;SDS011;54708;43.612;1.568;2024-01-07T00:19:12;5.22;;;4.07;;
67902;SDS011;54708;43.612;1.568;2024-01-07T00:21:37;6.82;;;4.18;;
67902;SDS011;54708;43.612;1.568;2024-01-07T00:24:02;5.95;;;4.05;;
67902;SDS011;54708;43.612;1.568;2024-01-07T00:26:28;6.95;;;4.55;;
67902;SDS011;54708;43.612;1.568;2024-01-07T00:28:53;7.30;;;4.28;;
67902;SDS011;54708;43.612;1.568;2024-01-07T00:31:19;8.45;;;3.90;;
67902;SDS011;54708;43.612;1.568;2024-01-07T00:33:44;6.10;;;4.82;;
67902;SDS011;54708;43.612;1.568;2024-01-07T00:36:10;4.22;;;3.83;;
67902;SDS011;54708;43.612;1.568;2024-01-07T00:38:35;6.13;;;4.25;;
67902;SDS011;54708;43.612;1.568;2024-01-07T00:41:01;5.55;;;4.20;;
67902;SDS011;54708;43.612;1.568;2024-01-07T00:43:26;6.00;;;4.30;;
67902;SDS011;54708;43.612;1.568;2024-01-07T00:45:51;5.30;;;4.38;;
67902;SDS011;54708;43.612;1.568;2024-01-07T00:48:17;6.20;;;4.45;;
67902;SDS011;54708;43.612;1.568;2024-01-07T00:50:42;5.05;;;3.60;;
67902;SDS011;54708;43.612;1.568;2024-01-07T00:53:08;5.35;;;4.43;;
67902;SDS011;54708;43.612;1.568;2024-01-07T00:55:33;4.65;;;3.97;;
67902;SDS011;54708;43.612;1.568;2024-01-07T00:58:00;5.28;;;3.88;;
67902;SDS011;54708;43.612;1.568;2024-01-07T01:00:26;10.95;;;4.13;;
67902;SDS011;54708;43.612;1.568;2024-01-07T01:02:52;5.35;;;4.68;;
67902;SDS011;54708;43.612;1.568;2024-01-07T01:05:18;8.07;;;5.18;;
67902;SDS011;54708;43.612;1.568;2024-01-07T01:07:43;7.43;;;5.78;;
67902;SDS011;54708;43.612;1.568;2024-01-07T01:10:09;9.85;;;7.00;;
67902;SDS011;54708;43.612;1.568;2024-01-07T01:12:34;17.40;;;10.13;;
67902;SDS011;54708;43.612;1.568;2024-01-07T01:15:00;14.70;;;10.68;;
67902;SDS011;54708;43.612;1.568;2024-01-07T01:17:25;17.33;;;10.88;;
67902;SDS011;54708;43.612;1.568;2024-01-07T01:19:51;17.63;;;10.15;;
67902;SDS011;54708;43.612;1.568;2024-01-07T01:22:16;12.05;;;8.63;;
67902;SDS011;54708;43.612;1.568;2024-01-07T01:24:41;10.90;;;8.05;;
67902;SDS011;54708;43.612;1.568;2024-01-07T01:27:09;9.23;;;7.07;;
67902;SDS011;54708;43.612;1.568;2024-01-07T01:29:35;8.52;;;6.57;;
67902;SDS011;54708;43.612;1.568;2024-01-07T01:32:01;6.72;;;5.53;;
67902;SDS011;54708;43.612;1.568;2024-01-07T01:34:26;8.32;;;5.43;;
67902;SDS011;54708;43.612;1.568;2024-01-07T01:36:52;8.55;;;5.68;;
67902;SDS011;54708;43.612;1.568;2024-01-07T01:39:17;11.20;;;5.97;;
67902;SDS011;54708;43.612;1.568;2024-01-07T01:41:43;10.68;;;5.30;;
67902;SDS011;54708;43.612;1.568;2024-01-07T01:44:08;9.23;;;4.85;;
67902;SDS011;54708;43.612;1.568;2024-01-07T01:46:34;8.45;;;4.55;;
67902;SDS011;54708;43.612;1.568;2024-01-07T01:48:59;5.72;;;4.43;;
67902;SDS011;54708;43.612;1.568;2024-01-07T01:51:25;9.10;;;4.15;;
67902;SDS011;54708;43.612;1.568;2024-01-07T01:53:51;7.20;;;5.03;;
67902;SDS011;54708;43.612;1.568;2024-01-07T01:56:16;8.93;;;5.28;;
67902;SDS011;54708;43.612;1.568;2024-01-07T01:58:42;8.88;;;4.57;;
67902;SDS011;54708;43.612;1.568;2024-01-07T02:01:08;6.20;;;4.78;;
67902;SDS011;54708;43.612;1.568;2024-01-07T02:03:33;9.52;;;5.40;;
67902;SDS011;54708;43.612;1.568;2024-01-07T02:05:58;6.82;;;4.75;;
67902;SDS011;54708;43.612;1.568;2024-01-07T02:08:24;6.35;;;4.57;;
67902;SDS011;54708;43.612;1.568;2024-01-07T02:10:50;7.22;;;5.00;;
67902;SDS011;54708;43.612;1.568;2024-01-07T02:13:15;7.05;;;5.40;;
67902;SDS011;54708;43.612;1.568;2024-01-07T02:15:41;7.03;;;5.20;;
67902;SDS011;54708;43.612;1.568;2024-01-07T02:18:06;6.03;;;4.57;;
67902;SDS011;54708;43.612;1.568;2024-01-07T02:20:32;7.05;;;5.07;;
67902;SDS011;54708;43.612;1.568;2024-01-07T02:22:57;7.50;;;4.75;;
67902;SDS011;54708;43.612;1.568;2024-01-07T02:25:23;7.60;;;5.43;;
67902;SDS011;54708;43.612;1.568;2024-01-07T02:27:48;6.75;;;4.50;;
67902;SDS011;54708;43.612;1.568;2024-01-07T02:30:14;7.95;;;5.03;;
67902;SDS011;54708;43.612;1.568;2024-01-07T02:32:39;9.73;;;4.88;;
67902;SDS011;54708;43.612;1.568;2024-01-07T02:35:05;8.55;;;5.53;;
67902;SDS011;54708;43.612;1.568;2024-01-07T02:37:30;8.43;;;4.85;;
67902;SDS011;54708;43.612;1.568;2024-01-07T02:39:56;5.75;;;4.60;;
67902;SDS011;54708;43.612;1.568;2024-01-07T02:42:21;8.13;;;5.28;;
67902;SDS011;54708;43.612;1.568;2024-01-07T02:44:46;6.80;;;5.15;;
67902;SDS011;54708;43.612;1.568;2024-01-07T02:47:12;7.38;;;5.00;;
67902;SDS011;54708;43.612;1.568;2024-01-07T02:49:37;6.53;;;4.70;;
67902;SDS011;54708;43.612;1.568;2024-01-07T02:52:03;5.97;;;4.20;;
67902;SDS011;54708;43.612;1.568;2024-01-07T02:54:28;5.95;;;5.30;;
67902;SDS011;54708;43.612;1.568;2024-01-07T02:56:54;9.23;;;5.93;;
67902;SDS011;54708;43.612;1.568;2024-01-07T02:59:19;7.38;;;4.72;;
67902;SDS011;54708;43.612;1.568;2024-01-07T03:01:44;7.70;;;5.20;;
67902;SDS011;54708;43.612;1.568;2024-01-07T03:04:10;6.53;;;4.82;;
67902;SDS011;54708;43.612;1.568;2024-01-07T03:06:37;8.68;;;5.38;;
67902;SDS011;54708;43.612;1.568;2024-01-07T03:09:02;8.18;;;5.63;;
67902;SDS011;54708;43.612;1.568;2024-01-07T03:11:28;7.53;;;5.07;;
67902;SDS011;54708;43.612;1.568;2024-01-07T03:13:54;10.77;;;5.70;;
67902;SDS011;54708;43.612;1.568;2024-01-07T03:16:20;5.57;;;4.80;;
67902;SDS011;54708;43.612;1.568;2024-01-07T03:18:46;9.55;;;4.57;;
67902;SDS011;54708;43.612;1.568;2024-01-07T03:21:21;9.40;;;6.07;;
67902;SDS011;54708;43.612;1.568;2024-01-07T03:23:47;6.93;;;4.88;;
67902;SDS011;54708;43.612;1.568;2024-01-07T03:26:14;7.28;;;5.15;;
67902;SDS011;54708;43.612;1.568;2024-01-07T03:28:39;6.50;;;4.55;;
67902;SDS011;54708;43.612;1.568;2024-01-07T03:31:07;9.40;;;4.85;;
67902;SDS011;54708;43.612;1.568;2024-01-07T03:33:33;7.25;;;3.90;;
67902;SDS011;54708;43.612;1.568;2024-01-07T03:35:58;5.85;;;4.78;;
67902;SDS011;54708;43.612;1.568;2024-01-07T03:38:24;5.07;;;4.35;;
67902;SDS011;54708;43.612;1.568;2024-01-07T03:40:49;4.30;;;3.70;;
67902;SDS011;54708;43.612;1.568;2024-01-07T03:43:14;4.72;;;4.20;;
67902;SDS011;54708;43.612;1.568;2024-01-07T03:45:40;6.15;;;4.53;;
67902;SDS011;54708;43.612;1.568;2024-01-07T03:48:06;5.05;;;4.32;;
67902;SDS011;54708;43.612;1.568;2024-01-07T03:50:32;9.82;;;4.03;;
67902;SDS011;54708;43.612;1.568;2024-01-07T03:52:58;5.20;;;3.78;;
67902;SDS011;54708;43.612;1.568;2024-01-07T03:55:23;4.95;;;3.83;;
67902;SDS011;54708;43.612;1.568;2024-01-07T03:57:48;5.05;;;4.53;;
67902;SDS011;54708;43.612;1.568;2024-01-07T04:00:14;7.18;;;4.35;;
67902;SDS011;54708;43.612;1.568;2024-01-07T04:02:39;6.95;;;3.65;;
67902;SDS011;54708;43.612;1.568;2024-01-07T04:05:05;6.15;;;4.22;;
67902;SDS011;54708;43.612;1.568;2024-01-07T04:07:30;6.55;;;4.00;;
67902;SDS011;54708;43.612;1.568;2024-01-07T04:09:56;4.38;;;3.92;;
67902;SDS011;54708;43.612;1.568;2024-01-07T04:12:21;5.80;;;3.97;;
67902;SDS011;54708;43.612;1.568;2024-01-07T04:14:47;5.05;;;4.22;;
67902;SDS011;54708;43.612;1.568;2024-01-07T04:17:12;7.90;;;4.25;;
67902;SDS011;54708;43.612;1.568;2024-01-07T04:19:37;4.72;;;4.07;;
67902;SDS011;54708;43.612;1.568;2024-01-07T04:22:06;7.68;;;5.05;;
67902;SDS011;54708;43.612;1.568;2024-01-07T04:24:31;6.15;;;4.07;;
67902;SDS011;54708;43.612;1.568;2024-01-07T04:26:56;5.40;;;3.38;;
67902;SDS011;54708;43.612;1.568;2024-01-07T04:29:22;4.65;;;4.13;;
67902;SDS011;54708;43.612;1.568;2024-01-07T04:31:47;4.55;;;3.47;;
67902;SDS011;54708;43.612;1.568;2024-01-07T04:34:12;6.22;;;4.13;;
67902;SDS011;54708;43.612;1.568;2024-01-07T04:36:38;3.60;;;3.30;;
67902;SDS011;54708;43.612;1.568;2024-01-07T04:39:03;4.00;;;3.60;;
67902;SDS011;54708;43.612;1.568;2024-01-07T04:41:29;5.63;;;4.00;;
67902;SDS011;54708;43.612;1.568;2024-01-07T04:43:54;4.72;;;3.53;;
67902;SDS011;54708;43.612;1.568;2024-01-07T04:46:19;5.75;;;4.20;;
67902;SDS011;54708;43.612;1.568;2024-01-07T04:48:45;6.68;;;3.92;;
67902;SDS011;54708;43.612;1.568;2024-01-07T04:51:10;6.03;;;3.95;;
67902;SDS011;54708;43.612;1.568;2024-01-07T04:53:36;7.80;;;4.03;;
67902;SDS011;54708;43.612;1.568;2024-01-07T04:56:02;5.82;;;4.07;;
67902;SDS011;54708;43.612;1.568;2024-01-07T04:58:27;7.05;;;4.30;;
67902;SDS011;54708;43.612;1.568;2024-01-07T05:00:53;5.07;;;3.47;;
67902;SDS011;54708;43.612;1.568;2024-01-07T05:03:18;4.70;;;4.20;;
67902;SDS011;54708;43.612;1.568;2024-01-07T05:05:43;6.72;;;3.70;;
67902;SDS011;54708;43.612;1.568;2024-01-07T05:08:09;6.82;;;4.47;;
67902;SDS011;54708;43.612;1.568;2024-01-07T05:10:34;6.55;;;4.35;;
67902;SDS011;54708;43.612;1.568;2024-01-07T05:12:59;6.28;;;4.82;;
67902;SDS011;54708;43.612;1.568;2024-01-07T05:15:30;6.90;;;4.88;;
67902;SDS011;54708;43.612;1.568;2024-01-07T05:17:55;8.05;;;4.95;;
67902;SDS011;54708;43.612;1.568;2024-01-07T05:20:21;8.05;;;4.88;;
67902;SDS011;54708;43.612;1.568;2024-01-07T05:22:46;6.72;;;4.50;;
67902;SDS011;54708;43.612;1.568;2024-01-07T05:25:11;5.20;;;4.18;;
67902;SDS011;54708;43.612;1.568;2024-01-07T05:27:37;5.20;;;4.60;;
67902;SDS011;54708;43.612;1.568;2024-01-07T05:30:02;5.97;;;4.03;;
67902;SDS011;54708;43.612;1.568;2024-01-07T05:32:28;5.47;;;4.15;;
67902;SDS011;54708;43.612;1.568;2024-01-07T05:34:54;6.88;;;4.78;;
67902;SDS011;54708;43.612;1.568;2024-01-07T05:37:19;6.30;;;5.60;;
67902;SDS011;54708;43.612;1.568;2024-01-07T05:39:44;8.05;;;6.15;;
67902;SDS011;54708;43.612;1.568;2024-01-07T05:42:10;4.88;;;4.43;;
67902;SDS011;54708;43.612;1.568;2024-01-07T05:44:35;7.22;;;4.90;;
67902;SDS011;54708;43.612;1.568;2024-01-07T05:47:01;4.90;;;4.30;;
67902;SDS011;54708;43.612;1.568;2024-01-07T05:49:26;5.38;;;4.05;;
67902;SDS011;54708;43.612;1.568;2024-01-07T05:51:52;5.57;;;4.70;;
67902;SDS011;54708;43.612;1.568;2024-01-07T05:54:17;8.98;;;4.07;;
67902;SDS011;54708;43.612;1.568;2024-01-07T05:56:42;6.65;;;4.97;;
67902;SDS011;54708;43.612;1.568;2024-01-07T05:59:08;7.82;;;4.15;;
67902;SDS011;54708;43.612;1.568;2024-01-07T06:01:33;7.25;;;5.15;;
67902;SDS011;54708;43.612;1.568;2024-01-07T06:04:00;7.72;;;3.97;;
67902;SDS011;54708;43.612;1.568;2024-01-07T06:06:25;5.93;;;4.28;;
67902;SDS011;54708;43.612;1.568;2024-01-07T06:08:50;5.82;;;4.07;;
67902;SDS011;54708;43.612;1.568;2024-01-07T06:11:16;5.97;;;3.92;;
67902;SDS011;54708;43.612;1.568;2024-01-07T06:13:45;5.28;;;3.83;;
67902;SDS011;54708;43.612;1.568;2024-01-07T06:16:10;4.45;;;3.40;;
67902;SDS011;54708;43.612;1.568;2024-01-07T06:18:35;4.72;;;3.58;;
67902;SDS011;54708;43.612;1.568;2024-01-07T06:21:01;5.80;;;3.97;;
67902;SDS011;54708;43.612;1.568;2024-01-07T06:23:26;5.60;;;3.90;;
67902;SDS011;54708;43.612;1.568;2024-01-07T06:25:52;6.97;;;3.72;;
67902;SDS011;54708;43.612;1.568;2024-01-07T06:28:17;5.13;;;3.58;;
67902;SDS011;54708;43.612;1.568;2024-01-07T06:30:42;5.35;;;3.70;;
67902;SDS011;54708;43.612;1.568;2024-01-07T06:33:08;6.53;;;3.63;;
67902;SDS011;54708;43.612;1.568;2024-01-07T06:35:33;3.70;;;3.28;;
67902;SDS011;54708;43.612;1.568;2024-01-07T06:37:58;5.55;;;3.40;;
67902;SDS011;54708;43.612;1.568;2024-01-07T06:40:25;4.32;;;3.28;;
67902;SDS011;54708;43.612;1.568;2024-01-07T06:42:50;6.50;;;3.80;;
67902;SDS011;54708;43.612;1.568;2024-01-07T06:45:16;5.10;;;4.22;;
67902;SDS011;54708;43.612;1.568;2024-01-07T06:47:42;5.53;;;4.57;;
67902;SDS011;54708;43.612;1.568;2024-01-07T06:50:07;4.53;;;3.08;;
67902;SDS011;54708;43.612;1.568;2024-01-07T06:52:33;3.58;;;2.90;;
67902;SDS011;54708;43.612;1.568;2024-01-07T06:54:59;6.80;;;3.80;;
67902;SDS011;54708;43.612;1.568;2024-01-07T06:57:24;8.35;;;3.95;;
67902;SDS011;54708;43.612;1.568;2024-01-07T06:59:49;7.63;;;5.13;;
67902;SDS011;54708;43.612;1.568;2024-01-07T07:02:15;5.30;;;3.40;;
67902;SDS011;54708;43.612;1.568;2024-01-07T07:04:40;7.50;;;4.10;;
67902;SDS011;54708;43.612;1.568;2024-01-07T07:07:05;5.32;;;4.10;;
67902;SDS011;54708;43.612;1.568;2024-01-07T07:09:31;7.05;;;4.38;;
67902;SDS011;54708;43.612;1.568;2024-01-07T07:11:56;7.75;;;4.25;;
67902;SDS011;54708;43.612;1.568;2024-01-07T07:14:21;5.95;;;3.90;;
67902;SDS011;54708;43.612;1.568;2024-01-07T07:16:47;4.88;;;3.42;;
67902;SDS011;54708;43.612;1.568;2024-01-07T07:19:12;5.20;;;4.20;;
67902;SDS011;54708;43.612;1.568;2024-01-07T07:21:40;7.47;;;4.85;;
67902;SDS011;54708;43.612;1.568;2024-01-07T07:24:05;5.55;;;3.90;;
67902;SDS011;54708;43.612;1.568;2024-01-07T07:26:31;3.80;;;3.45;;
67902;SDS011;54708;43.612;1.568;2024-01-07T07:28:56;6.15;;;3.95;;
67902;SDS011;54708;43.612;1.568;2024-01-07T07:31:22;5.07;;;3.50;;
67902;SDS011;54708;43.612;1.568;2024-01-07T07:33:47;6.95;;;4.38;;
67902;SDS011;54708;43.612;1.568;2024-01-07T07:36:14;7.78;;;5.60;;
67902;SDS011;54708;43.612;1.568;2024-01-07T07:38:40;4.03;;;3.63;;
67902;SDS011;54708;43.612;1.568;2024-01-07T07:41:05;4.80;;;3.97;;
67902;SDS011;54708;43.612;1.568;2024-01-07T07:43:30;5.10;;;3.90;;
67902;SDS011;54708;43.612;1.568;2024-01-07T07:45:56;7.72;;;4.70;;
67902;SDS011;54708;43.612;1.568;2024-01-07T07:48:21;5.80;;;4.38;;
67902;SDS011;54708;43.612;1.568;2024-01-07T07:50:47;7.50;;;3.63;;
67902;SDS011;54708;43.612;1.568;2024-01-07T07:53:13;4.45;;;3.90;;
67902;SDS011;54708;43.612;1.568;2024-01-07T07:55:38;8.23;;;3.70;;
67902;SDS011;54708;43.612;1.568;2024-01-07T07:58:04;3.75;;;3.22;;
67902;SDS011;54708;43.612;1.568;2024-01-07T08:00:29;6.15;;;4.85;;
67902;SDS011;54708;43.612;1.568;2024-01-07T08:02:54;5.97;;;3.53;;
67902;SDS011;54708;43.612;1.568;2024-01-07T08:05:20;5.63;;;4.07;;
67902;SDS011;54708;43.612;1.568;2024-01-07T08:07:45;6.10;;;3.92;;
67902;SDS011;54708;43.612;1.568;2024-01-07T08:10:10;5.00;;;3.53;;
67902;SDS011;54708;43.612;1.568;2024-01-07T08:12:36;6.47;;;4.55;;
67902;SDS011;54708;43.612;1.568;2024-01-07T08:15:01;7.25;;;5.05;;
67902;SDS011;54708;43.612;1.568;2024-01-07T08:17:27;5.38;;;4.32;;
67902;SDS011;54708;43.612;1.568;2024-01-07T08:19:53;6.47;;;4.43;;
67902;SDS011;54708;43.612;1.568;2024-01-07T08:22:19;4.93;;;4.15;;
67902;SDS011;54708;43.612;1.568;2024-01-07T08:24:44;5.63;;;3.92;;
67902;SDS011;54708;43.612;1.568;2024-01-07T08:27:09;6.43;;;3.78;;
67902;SDS011;54708;43.612;1.568;2024-01-07T08:29:35;3.72;;;3.10;;
67902;SDS011;54708;43.612;1.568;2024-01-07T08:32:01;7.18;;;4.03;;
67902;SDS011;54708;43.612;1.568;2024-01-07T08:34:26;6.93;;;4.10;;
67902;SDS011;54708;43.612;1.568;2024-01-07T08:36:52;5.53;;;3.40;;
67902;SDS011;54708;43.612;1.568;2024-01-07T08:39:19;4.25;;;3.67;;
67902;SDS011;54708;43.612;1.568;2024-01-07T08:41:44;7.18;;;4.28;;
67902;SDS011;54708;43.612;1.568;2024-01-07T08:44:10;3.70;;;3.38;;
67902;SDS011;54708;43.612;1.568;2024-01-07T08:46:35;4.35;;;3.55;;
67902;SDS011;54708;43.612;1.568;2024-01-07T08:49:01;4.55;;;3.67;;
67902;SDS011;54708;43.612;1.568;2024-01-07T08:51:27;4.30;;;3.75;;
67902;SDS011;54708;43.612;1.568;2024-01-07T08:53:52;6.45;;;4.40;;
67902;SDS011;54708;43.612;1.568;2024-01-07T08:56:17;5.90;;;4.50;;
67902;SDS011;54708;43.612;1.568;2024-01-07T08:58:43;7.28;;;4.93;;
67902;SDS011;54708;43.612;1.568;2024-01-07T09:01:08;5.53;;;4.10;;
67902;SDS011;54708;43.612;1.568;2024-01-07T09:03:34;6.38;;;4.22;;
67902;SDS011;54708;43.612;1.568;2024-01-07T09:05:59;8.15;;;4.95;;
67902;SDS011;54708;43.612;1.568;2024-01-07T09:08:25;4.50;;;3.85;;
67902;SDS011;54708;43.612;1.568;2024-01-07T09:10:50;5.15;;;3.78;;
67902;SDS011;54708;43.612;1.568;2024-01-07T09:13:15;4.28;;;3.42;;
67902;SDS011;54708;43.612;1.568;2024-01-07T09:15:41;4.80;;;3.70;;
67902;SDS011;54708;43.612;1.568;2024-01-07T09:18:06;4.28;;;3.88;;
67902;SDS011;54708;43.612;1.568;2024-01-07T09:20:32;6.45;;;3.80;;
67902;SDS011;54708;43.612;1.568;2024-01-07T09:22:58;6.60;;;3.97;;
67902;SDS011;54708;43.612;1.568;2024-01-07T09:25:24;4.32;;;3.53;;
67902;SDS011;54708;43.612;1.568;2024-01-07T09:27:51;3.92;;;3.42;;
67902;SDS011;54708;43.612;1.568;2024-01-07T09:30:16;6.43;;;3.58;;
67902;SDS011;54708;43.612;1.568;2024-01-07T09:32:42;5.95;;;4.80;;
67902;SDS011;54708;43.612;1.568;2024-01-07T09:35:08;4.43;;;2.95;;
67902;SDS011;54708;43.612;1.568;2024-01-07T09:37:33;4.78;;;3.22;;
67902;SDS011;54708;43.612;1.568;2024-01-07T09:40:00;4.90;;;3.20;;
67902;SDS011;54708;43.612;1.568;2024-01-07T09:42:25;5.28;;;3.88;;
67902;SDS011;54708;43.612;1.568;2024-01-07T09:44:51;4.25;;;3.53;;
67902;SDS011;54708;43.612;1.568;2024-01-07T09:47:17;8.27;;;3.72;;
67902;SDS011;54708;43.612;1.568;2024-01-07T09:49:43;5.78;;;4.00;;
67902;SDS011;54708;43.612;1.568;2024-01-07T09:52:10;7.28;;;3.95;;
67902;SDS011;54708;43.612;1.568;2024-01-07T09:54:37;4.70;;;3.55;;
67902;SDS011;54708;43.612;1.568;2024-01-07T09:57:04;6.00;;;3.42;;
67902;SDS011;54708;43.612;1.568;2024-01-07T09:59:34;4.05;;;3.65;;
67902;SDS011;54708;43.612;1.568;2024-01-07T10:02:00;5.43;;;3.83;;
67902;SDS011;54708;43.612;1.568;2024-01-07T10:04:26;5.45;;;4.93;;
67902;SDS011;54708;43.612;1.568;2024-01-07T10:06:58;5.47;;;4.00;;
67902;SDS011;54708;43.612;1.568;2024-01-07T10:09:24;5.55;;;3.55;;
67902;SDS011;54708;43.612;1.568;2024-01-07T10:11:53;5.75;;;3.92;;
67902;SDS011;54708;43.612;1.568;2024-01-07T10:14:19;5.78;;;3.85;;
67902;SDS011;54708;43.612;1.568;2024-01-07T10:16:47;5.57;;;4.15;;
67902;SDS011;54708;43.612;1.568;2024-01-07T10:19:18;10.38;;;5.30;;
67902;SDS011;54708;43.612;1.568;2024-01-07T10:21:45;9.57;;;5.03;;
67902;SDS011;54708;43.612;1.568;2024-01-07T10:24:10;4.28;;;3.88;;
67902;SDS011;54708;43.612;1.568;2024-01-07T10:26:37;8.45;;;4.22;;
67902;SDS011;54708;43.612;1.568;2024-01-07T10:29:03;7.47;;;4.25;;
67902;SDS011;54708;43.612;1.568;2024-01-07T10:31:29;12.95;;;5.05;;
67902;SDS011;54708;43.612;1.568;2024-01-07T10:33:54;7.28;;;3.92;;
67902;SDS011;54708;43.612;1.568;2024-01-07T10:36:21;9.02;;;4.18;;
67902;SDS011;54708;43.612;1.568;2024-01-07T10:38:47;7.57;;;4.40;;
67902;SDS011;54708;43.612;1.568;2024-01-07T10:41:13;4.28;;;3.28;;
67902;SDS011;54708;43.612;1.568;2024-01-07T10:43:40;4.05;;;2.85;;
67902;SDS011;54708;43.612;1.568;2024-01-07T10:46:07;7.28;;;4.20;;
67902;SDS011;54708;43.612;1.568;2024-01-07T10:48:34;5.35;;;3.17;;
67902;SDS011;54708;43.612;1.568;2024-01-07T10:51:02;7.22;;;4.10;;
67902;SDS011;54708;43.612;1.568;2024-01-07T10:53:28;6.00;;;3.78;;
67902;SDS011;54708;43.612;1.568;2024-01-07T10:56:00;6.03;;;4.13;;
67902;SDS011;54708;43.612;1.568;2024-01-07T10:58:29;4.45;;;3.53;;
67902;SDS011;54708;43.612;1.568;2024-01-07T11:01:01;4.32;;;3.22;;
67902;SDS011;54708;43.612;1.568;2024-01-07T11:06:01;6.15;;;3.25;;
67902;SDS011;54708;43.612;1.568;2024-01-07T11:08:45;6.05;;;3.63;;
67902;SDS011;54708;43.612;1.568;2024-01-07T11:11:18;3.28;;;2.80;;
67902;SDS011;54708;43.612;1.568;2024-01-07T11:13:48;6.57;;;3.95;;
67902;SDS011;54708;43.612;1.568;2024-01-07T11:16:13;6.45;;;4.05;;
67902;SDS011;54708;43.612;1.568;2024-01-07T11:19:03;10.05;;;4.38;;
67902;SDS011;54708;43.612;1.568;2024-01-07T11:21:29;5.43;;;3.80;;
67902;SDS011;54708;43.612;1.568;2024-01-07T11:23:54;6.13;;;3.90;;
67902;SDS011;54708;43.612;1.568;2024-01-07T11:26:20;5.68;;;3.88;;
67902;SDS011;54708;43.612;1.568;2024-01-07T11:28:46;7.88;;;4.38;;
67902;SDS011;54708;43.612;1.568;2024-01-07T11:32:01;5.90;;;4.25;;
67902;SDS011;54708;43.612;1.568;2024-01-07T11:34:04;3.75;;;3.42;;
67902;SDS011;54708;43.612;1.568;2024-01-07T11:36:30;7.93;;;3.42;;
67902;SDS011;54708;43.612;1.568;2024-01-07T11:38:56;9.02;;;4.22;;
67902;SDS011;54708;43.612;1.568;2024-01-07T11:41:22;8.15;;;4.10;;
67902;SDS011;54708;43.612;1.568;2024-01-07T11:43:53;6.60;;;4.00;;
67902;SDS011;54708;43.612;1.568;2024-01-07T11:46:24;5.75;;;4.63;;
67902;SDS011;54708;43.612;1.568;2024-01-07T11:48:50;7.63;;;5.03;;
67902;SDS011;54708;43.612;1.568;2024-01-07T11:51:18;4.38;;;3.92;;
67902;SDS011;54708;43.612;1.568;2024-01-07T11:53:45;5.30;;;4.38;;
67902;SDS011;54708;43.612;1.568;2024-01-07T11:56:12;6.32;;;4.90;;
67902;SDS011;54708;43.612;1.568;2024-01-07T11:58:37;6.88;;;3.38;;
67902;SDS011;54708;43.612;1.568;2024-01-07T12:01:02;8.98;;;4.63;;
67902;SDS011;54708;43.612;1.568;2024-01-07T12:03:28;5.75;;;4.68;;
67902;SDS011;54708;43.612;1.568;2024-01-07T12:05:53;13.43;;;7.22;;
67902;SDS011;54708;43.612;1.568;2024-01-07T12:08:19;9.77;;;5.97;;
67902;SDS011;54708;43.612;1.568;2024-01-07T12:10:45;7.25;;;5.03;;
67902;SDS011;54708;43.612;1.568;2024-01-07T12:13:11;5.80;;;4.63;;
67902;SDS011;54708;43.612;1.568;2024-01-07T12:15:37;9.48;;;5.72;;
67902;SDS011;54708;43.612;1.568;2024-01-07T12:18:02;7.22;;;4.20;;
67902;SDS011;54708;43.612;1.568;2024-01-07T12:20:29;4.22;;;3.35;;
67902;SDS011;54708;43.612;1.568;2024-01-07T12:22:55;6.45;;;4.35;;
67902;SDS011;54708;43.612;1.568;2024-01-07T12:25:22;6.18;;;3.75;;
67902;SDS011;54708;43.612;1.568;2024-01-07T12:27:49;4.28;;;3.47;;
67902;SDS011;54708;43.612;1.568;2024-01-07T12:30:18;6.03;;;4.70;;
67902;SDS011;54708;43.612;1.568;2024-01-07T12:32:46;11.30;;;7.00;;
67902;SDS011;54708;43.612;1.568;2024-01-07T12:35:12;10.20;;;6.07;;
67902;SDS011;54708;43.612;1.568;2024-01-07T12:37:37;14.48;;;6.75;;
67902;SDS011;54708;43.612;1.568;2024-01-07T12:40:03;9.13;;;4.90;;
67902;SDS011;54708;43.612;1.568;2024-01-07T12:42:29;5.75;;;4.07;;
67902;SDS011;54708;43.612;1.568;2024-01-07T12:44:55;5.20;;;3.78;;
67902;SDS011;54708;43.612;1.568;2024-01-07T12:47:20;7.70;;;3.95;;
67902;SDS011;54708;43.612;1.568;2024-01-07T12:49:45;6.57;;;4.07;;
67902;SDS011;54708;43.612;1.568;2024-01-07T12:52:11;6.55;;;3.13;;
67902;SDS011;54708;43.612;1.568;2024-01-07T12:54:38;4.38;;;3.63;;
67902;SDS011;54708;43.612;1.568;2024-01-07T12:57:03;10.52;;;5.90;;
67902;SDS011;54708;43.612;1.568;2024-01-07T12:59:29;14.20;;;6.65;;
67902;SDS011;54708;43.612;1.568;2024-01-07T13:01:54;6.90;;;4.78;;
67902;SDS011;54708;43.612;1.568;2024-01-07T13:04:20;6.25;;;3.80;;
67902;SDS011;54708;43.612;1.568;2024-01-07T13:06:45;7.35;;;4.57;;
67902;SDS011;54708;43.612;1.568;2024-01-07T13:09:10;5.50;;;3.80;;
67902;SDS011;54708;43.612;1.568;2024-01-07T13:11:36;7.25;;;3.83;;
67902;SDS011;54708;43.612;1.568;2024-01-07T13:14:01;5.53;;;3.83;;
67902;SDS011;54708;43.612;1.568;2024-01-07T13:16:27;5.35;;;4.03;;
67902;SDS011;54708;43.612;1.568;2024-01-07T13:18:53;6.47;;;3.75;;
67902;SDS011;54708;43.612;1.568;2024-01-07T13:21:19;6.38;;;4.20;;
67902;SDS011;54708;43.612;1.568;2024-01-07T13:23:45;9.77;;;5.80;;
67902;SDS011;54708;43.612;1.568;2024-01-07T13:26:11;3.90;;;3.50;;
67902;SDS011;54708;43.612;1.568;2024-01-07T13:28:36;5.03;;;4.50;;
67902;SDS011;54708;43.612;1.568;2024-01-07T13:31:01;7.65;;;4.93;;
67902;SDS011;54708;43.612;1.568;2024-01-07T13:33:28;7.35;;;4.07;;
67902;SDS011;54708;43.612;1.568;2024-01-07T13:35:54;10.27;;;6.78;;
67902;SDS011;54708;43.612;1.568;2024-01-07T13:38:19;5.47;;;4.32;;
67902;SDS011;54708;43.612;1.568;2024-01-07T13:40:44;5.82;;;2.88;;
67902;SDS011;54708;43.612;1.568;2024-01-07T13:43:10;4.45;;;3.55;;
67902;SDS011;54708;43.612;1.568;2024-01-07T13:45:35;6.85;;;3.47;;
67902;SDS011;54708;43.612;1.568;2024-01-07T13:48:01;6.18;;;4.05;;
67902;SDS011;54708;43.612;1.568;2024-01-07T13:50:26;3.28;;;3.00;;
67902;SDS011;54708;43.612;1.568;2024-01-07T13:52:52;5.75;;;3.55;;
67902;SDS011;54708;43.612;1.568;2024-01-07T13:55:18;6.15;;;3.33;;
67902;SDS011;54708;43.612;1.568;2024-01-07T13:57:43;4.22;;;3.20;;
67902;SDS011;54708;43.612;1.568;2024-01-07T14:00:09;6.95;;;4.85;;
67902;SDS011;54708;43.612;1.568;2024-01-07T14:02:36;5.72;;;2.90;;
67902;SDS011;54708;43.612;1.568;2024-01-07T14:05:03;7.80;;;3.42;;
67902;SDS011;54708;43.612;1.568;2024-01-07T14:07:31;3.60;;;2.65;;
67902;SDS011;54708;43.612;1.568;2024-01-07T14:09:57;3.72;;;2.35;;
67902;SDS011;54708;43.612;1.568;2024-01-07T14:12:23;5.47;;;3.50;;
67902;SDS011;54708;43.612;1.568;2024-01-07T14:14:49;9.77;;;4.30;;
67902;SDS011;54708;43.612;1.568;2024-01-07T14:17:15;6.80;;;4.43;;
67902;SDS011;54708;43.612;1.568;2024-01-07T14:19:41;5.60;;;4.40;;
67902;SDS011;54708;43.612;1.568;2024-01-07T14:22:08;13.05;;;6.03;;
67902;SDS011;54708;43.612;1.568;2024-01-07T14:24:34;19.90;;;8.48;;
67902;SDS011;54708;43.612;1.568;2024-01-07T14:26:59;13.88;;;6.07;;
67902;SDS011;54708;43.612;1.568;2024-01-07T14:29:24;14.50;;;5.75;;
67902;SDS011;54708;43.612;1.568;2024-01-07T14:31:50;14.48;;;5.93;;
67902;SDS011;54708;43.612;1.568;2024-01-07T14:34:15;8.45;;;4.45;;
67902;SDS011;54708;43.612;1.568;2024-01-07T14:36:40;9.80;;;5.40;;
67902;SDS011;54708;43.612;1.568;2024-01-07T14:39:08;17.08;;;7.85;;
67902;SDS011;54708;43.612;1.568;2024-01-07T14:41:34;11.85;;;6.43;;